Time;durP1;ratioP1;P1;durP2;ratioP2;P2;SDS_P1;SDS_P2;PMS_P1;PMS_P2;Temp;Humidity;BMP_temperature;BMP_pressure;BME280_temperature;BME280_humidity;BME280_pressure;Samples;Min_cycle;Max_cycle;Signal;HPM_P1;HPM_P2
2023/01/30 00:01:03;;;;;;;56.80;21.20;;;;;;;4.46;100.00;101469.91;4947440;28;20983;-78
2023/01/30 00:03:30;;;;;;;53.35;22.48;;;;;;;4.41;100.00;101478.38;4948703;28;20046;-80
2023/01/30 00:05:59;;;;;;;40.40;16.50;;;;;;;4.51;100.00;101485.34;4953812;28;20063;-81
2023/01/30 00:08:26;;;;;;;44.38;17.83;;;;;;;4.51;100.00;101479.88;4957068;28;20929;-79
2023/01/30 00:10:52;;;;;;;54.28;25.35;;;;;;;4.49;100.00;101484.91;4958505;28;20046;-81
2023/01/30 00:13:19;;;;;;;36.92;15.95;;;;;;;4.52;100.00;101468.56;4944527;28;20043;-81
2023/01/30 00:15:46;;;;;;;43.35;18.10;;;;;;;4.57;100.00;101473.84;4951107;28;20054;-78
2023/01/30 00:18:13;;;;;;;44.70;18.50;;;;;;;4.61;100.00;101457.53;4950493;28;20050;-78
2023/01/30 00:20:39;;;;;;;50.03;21.75;;;;;;;4.65;100.00;101450.22;4950908;28;20472;-78
2023/01/30 00:23:06;;;;;;;58.63;27.70;;;;;;;4.60;100.00;101451.25;4948763;28;20047;-79
2023/01/30 00:25:32;;;;;;;41.15;18.42;;;;;;;4.62;100.00;101454.44;4956377;28;20272;-78
2023/01/30 00:28:00;;;;;;;62.40;30.25;;;;;;;4.62;100.00;101456.38;4956799;28;20107;-78
2023/01/30 00:30:27;;;;;;;37.92;16.90;;;;;;;4.73;100.00;101439.16;4955314;28;20065;-78
2023/01/30 00:32:58;;;;;;;62.05;27.83;;;;;;;4.61;100.00;101428.19;4951384;28;20236;-77
2023/01/30 00:35:27;;;;;;;35.83;14.25;;;;;;;4.71;100.00;101422.25;4956671;28;20053;-78
2023/01/30 00:38:14;;;;;;;61.70;33.75;;;;;;;4.62;100.00;101416.06;4952208;28;20050;-77
2023/01/30 00:40:42;;;;;;;54.55;21.60;;;;;;;4.68;100.00;101414.72;4947704;28;20058;-78
2023/01/30 00:48:42;;;;;;;40.60;16.13;;;;;;;4.77;100.00;101393.47;4969197;28;20046;-78
2023/01/30 00:51:09;;;;;;;58.63;24.55;;;;;;;4.75;100.00;101401.25;4961723;28;21002;-80
2023/01/30 00:53:35;;;;;;;58.58;25.70;;;;;;;4.78;100.00;101400.56;4970413;28;20046;-80
2023/01/30 00:56:02;;;;;;;52.85;20.58;;;;;;;4.86;100.00;101388.66;4952426;28;20410;-80
2023/01/30 00:58:29;;;;;;;53.05;22.38;;;;;;;4.82;100.00;101382.28;4955636;28;20165;-79
2023/01/30 01:00:55;;;;;;;51.55;24.17;;;;;;;4.84;100.00;101403.88;4954528;28;20059;-77
2023/01/30 01:03:22;;;;;;;62.97;25.17;;;;;;;5.01;100.00;101387.19;4954515;28;20065;-78
2023/01/30 01:05:49;;;;;;;61.15;32.05;;;;;;;4.91;100.00;101391.19;4957958;28;20051;-80
2023/01/30 01:08:15;;;;;;;40.17;18.08;;;;;;;4.99;100.00;101386.72;4960883;28;20258;-77
2023/01/30 01:10:42;;;;;;;38.63;15.60;;;;;;;5.11;100.00;101367.53;4955856;28;20055;-78
2023/01/30 01:13:09;;;;;;;53.13;21.48;;;;;;;5.02;100.00;101356.66;4959214;28;20054;-81
2023/01/30 01:15:36;;;;;;;58.13;27.90;;;;;;;4.96;100.00;101351.75;4956801;28;20046;-78
2023/01/30 01:18:02;;;;;;;39.08;17.42;;;;;;;5.02;100.00;101355.88;4951581;28;20844;-78
2023/01/30 01:20:29;;;;;;;47.20;19.80;;;;;;;4.97;100.00;101361.59;4952316;28;20053;-79
2023/01/30 01:22:56;;;;;;;55.15;24.55;;;;;;;4.91;100.00;101371.19;4956240;28;20587;-79
2023/01/30 01:25:24;;;;;;;49.72;20.85;;;;;;;4.94;100.00;101362.28;4959002;28;20051;-79
2023/01/30 01:27:50;;;;;;;39.55;19.92;;;;;;;5.03;100.00;101343.78;4951699;28;20050;-78
2023/01/30 01:30:17;;;;;;;62.97;32.35;;;;;;;4.84;100.00;101332.56;4949237;28;20050;-78
2023/01/30 01:32:44;;;;;;;26.60;12.52;;;;;;;4.92;100.00;101343.44;4952638;28;20054;-80
2023/01/30 01:35:10;;;;;;;38.33;17.75;;;;;;;4.87;100.00;101340.91;4956987;28;20065;-78
2023/01/30 01:37:37;;;;;;;45.88;22.70;;;;;;;4.89;100.00;101341.38;4954000;28;20851;-77
2023/01/30 01:42:50;;;;;;;60.83;22.90;;;;;;;4.85;100.00;101326.75;4952301;28;20051;-78
2023/01/30 01:45:23;;;;;;;53.95;25.23;;;;;;;4.89;100.00;101313.94;4960018;28;20058;-78
2023/01/30 01:48:10;;;;;;;58.30;27.77;;;;;;;4.83;100.00;101320.81;4975762;28;20046;-77
2023/01/30 01:50:47;;;;;;;39.00;17.13;;;;;;;4.98;100.00;101325.59;4953931;28;20057;-78
2023/01/30 01:53:17;;;;;;;63.50;30.38;;;;;;;4.96;100.00;101330.63;4956324;28;20143;-80
2023/01/30 01:55:48;;;;;;;48.85;22.67;;;;;;;5.06;100.00;101321.09;4965072;28;20050;-77
2023/01/30 01:58:34;;;;;;;40.55;18.83;;;;;;;5.11;100.00;101313.47;4958127;28;20134;-77
2023/01/30 02:01:01;;;;;;;62.95;31.95;;;;;;;5.01;100.00;101300.22;4960876;28;20047;-77
2023/01/30 02:03:31;;;;;;;57.20;25.95;;;;;;;5.13;100.00;101299.41;4964635;28;20058;-78
2023/01/30 02:06:01;;;;;;;32.70;16.08;;;;;;;5.18;100.00;101291.72;4968358;28;20055;-78
2023/01/30 02:08:36;;;;;;;51.95;27.17;;;;;;;5.16;100.00;101301.44;4959246;28;20042;-78
2023/01/30 02:11:31;;;;;;;60.60;29.55;;;;;;;5.19;100.00;101301.56;4953395;28;20105;-78
2023/01/30 02:13:59;;;;;;;54.17;24.38;;;;;;;5.23;100.00;101296.16;4960016;28;20340;-77
2023/01/30 02:16:26;;;;;;;55.10;21.20;;;;;;;5.31;100.00;101282.28;4945351;28;20916;-78
2023/01/30 02:18:52;;;;;;;51.97;23.77;;;;;;;5.32;100.00;101285.84;4953326;28;20060;-78
2023/01/30 02:21:48;;;;;;;54.08;24.58;;;;;;;5.31;100.00;101263.09;4945223;28;20051;-78
2023/01/30 02:24:30;;;;;;;66.60;34.33;;;;;;;5.35;100.00;101272.25;4934976;28;20073;-77
2023/01/30 02:26:59;;;;;;;59.75;28.48;;;;;;;5.43;100.00;101234.03;4950378;28;20055;-77
2023/01/30 02:29:32;;;;;;;35.78;15.27;;;;;;;5.51;100.00;101244.84;4944295;28;20054;-78
2023/01/30 02:32:18;;;;;;;48.08;20.95;;;;;;;5.47;100.00;101254.13;4947758;28;20109;-78
2023/01/30 02:35:12;;;;;;;57.13;24.95;;;;;;;5.53;100.00;101228.03;4950036;28;20594;-78
2023/01/30 02:38:24;;;;;;;34.90;14.63;;;;;;;5.64;100.00;101251.88;4950024;28;20050;-78
2023/01/30 02:41:00;;;;;;;45.03;18.90;;;;;;;5.57;100.00;101250.88;4949193;28;20046;-79
2023/01/30 02:44:04;;;;;;;64.20;33.60;;;;;;;5.54;100.00;101224.94;4950496;28;20142;-78
2023/01/30 02:46:50;;;;;;;48.95;22.15;;;;;;;5.70;100.00;101233.19;4921722;28;20047;-79
2023/01/30 02:49:35;;;;;;;67.78;34.30;;;;;;;5.64;100.00;101231.84;4956169;28;20058;-78
2023/01/30 02:52:03;;;;;;;37.95;19.05;;;;;;;5.76;100.00;101253.72;4951739;28;20407;-78
2023/01/30 02:54:30;;;;;;;61.03;33.97;;;;;;;5.77;100.00;101245.13;4951652;28;20528;-78
2023/01/30 02:56:58;;;;;;;59.13;31.23;;;;;;;5.83;100.00;101221.00;4955139;28;20058;-78
2023/01/30 02:59:33;;;;;;;42.47;18.70;;;;;;;5.87;100.00;101224.66;4960060;28;20500;-77
2023/01/30 03:02:09;;;;;;;51.88;26.30;;;;;;;5.85;100.00;101229.69;4953706;28;20050;-80
2023/01/30 03:05:14;;;;;;;52.47;28.20;;;;;;;5.89;100.00;101203.91;4974842;28;20390;-78
2023/01/30 03:07:53;;;;;;;48.72;23.60;;;;;;;5.99;100.00;101216.31;4976186;28;20053;-79
2023/01/30 03:10:26;;;;;;;43.75;18.92;;;;;;;6.09;100.00;101202.03;4954116;28;20089;-78
2023/01/30 03:13:01;;;;;;;54.17;28.02;;;;;;;6.05;100.00;101195.66;4985381;28;20128;-78
2023/01/30 03:15:43;;;;;;;59.70;33.67;;;;;;;6.00;100.00;101179.47;4958775;28;20051;-78
2023/01/30 03:18:10;;;;;;;27.45;13.80;;;;;;;6.14;100.00;101186.09;4980095;28;20054;-78
2023/01/30 03:20:39;;;;;;;58.67;33.30;;;;;;;5.99;100.00;101188.84;4979675;28;20050;-78
2023/01/30 03:23:06;;;;;;;52.58;25.42;;;;;;;6.11;100.00;101164.03;4962606;28;20051;-79
2023/01/30 03:25:36;;;;;;;35.33;16.50;;;;;;;6.11;100.00;101155.78;4968391;28;20047;-79
2023/01/30 03:28:04;;;;;;;56.03;28.65;;;;;;;6.07;100.00;101161.19;4973716;28;20137;-78
2023/01/30 03:30:31;;;;;;;36.67;15.85;;;;;;;6.16;100.00;101159.06;4973269;28;20123;-79
2023/01/30 03:32:57;;;;;;;49.35;24.88;;;;;;;6.16;100.00;101163.75;4966936;28;20505;-79
2023/01/30 03:35:24;;;;;;;48.35;24.25;;;;;;;6.10;100.00;101182.47;4972512;28;20300;-78
2023/01/30 03:37:53;;;;;;;40.83;18.63;;;;;;;6.18;100.00;101164.97;4973682;28;20051;-78
2023/01/30 03:40:19;;;;;;;55.55;26.60;;;;;;;6.06;100.00;101153.31;4971071;28;20569;-78
2023/01/30 03:42:46;;;;;;;41.35;20.30;;;;;;;6.16;100.00;101147.25;4969867;28;20553;-78
2023/01/30 03:45:12;;;;;;;37.00;17.10;;;;;;;6.26;100.00;101131.03;4971608;28;20429;-79
2023/01/30 03:47:39;;;;;;;59.83;30.30;;;;;;;6.12;100.00;101129.91;4968826;28;20524;-79
2023/01/30 03:50:11;;;;;;;47.80;23.35;;;;;;;6.10;100.00;101132.19;4971632;28;20520;-79
2023/01/30 03:52:38;;;;;;;19.65;9.95;;;;;;;6.20;100.00;101118.72;4961820;28;20051;-79
2023/01/30 03:55:04;;;;;;;41.45;19.23;;;;;;;6.26;100.00;101131.03;4974391;28;20057;-78
2023/01/30 03:57:31;;;;;;;52.30;27.42;;;;;;;6.14;100.00;101133.09;4975893;28;20050;-79
2023/01/30 03:59:57;;;;;;;35.97;18.25;;;;;;;6.21;100.00;101133.25;4975711;28;20509;-80
2023/01/30 04:02:25;;;;;;;47.60;25.58;;;;;;;6.13;100.00;101142.47;4971622;28;20053;-77
2023/01/30 04:04:52;;;;;;;55.40;25.17;;;;;;;6.18;100.00;101128.47;4973060;28;20039;-77
2023/01/30 04:07:18;;;;;;;44.20;22.65;;;;;;;6.12;100.00;101133.47;4969830;28;20043;-77
2023/01/30 04:09:45;;;;;;;34.53;15.00;;;;;;;6.09;100.00;101141.59;4969043;28;20050;-79
2023/01/30 04:12:12;;;;;;;45.65;22.55;;;;;;;6.05;100.00;101118.75;4963853;28;20035;-78
2023/01/30 04:14:38;;;;;;;39.92;18.67;;;;;;;6.10;100.00;101129.44;4965850;28;20043;-79
2023/01/30 04:17:05;;;;;;;40.72;19.80;;;;;;;6.01;100.00;101121.41;4981287;28;20250;-78
2023/01/30 04:19:32;;;;;;;56.75;31.40;;;;;;;5.99;100.00;101133.91;4978243;28;20049;-78
2023/01/30 04:21:58;;;;;;;38.00;16.98;;;;;;;6.02;100.00;101117.53;4978950;28;20053;-78
2023/01/30 04:24:25;;;;;;;36.95;16.90;;;;;;;6.08;100.00;101107.06;4988342;28;20608;-78
2023/01/30 04:26:57;;;;;;;54.90;28.30;;;;;;;6.05;100.00;101113.25;4977523;28;20647;-79
2023/01/30 04:29:24;;;;;;;50.75;23.45;;;;;;;6.05;100.00;101140.72;4976072;28;20050;-78
2023/01/30 04:31:50;;;;;;;46.60;25.80;;;;;;;6.07;100.00;101127.44;4972292;28;20094;-79
2023/01/30 04:34:16;;;;;;;44.00;20.02;;;;;;;6.12;100.00;101118.91;4971341;28;20138;-77
2023/01/30 04:36:43;;;;;;;54.63;30.27;;;;;;;6.04;100.00;101108.94;4973506;28;20102;-80
2023/01/30 04:39:15;;;;;;;40.90;18.08;;;;;;;6.11;100.00;101111.84;4972071;28;20053;-79
2023/01/30 04:41:42;;;;;;;45.13;22.23;;;;;;;6.07;100.00;101133.72;4970525;28;20057;-77
2023/01/30 04:44:08;;;;;;;41.50;19.80;;;;;;;6.08;100.00;101118.84;4968093;28;20047;-80
2023/01/30 04:46:35;;;;;;;53.13;30.65;;;;;;;6.07;100.00;101130.19;4978965;28;20051;-77
2023/01/30 04:49:01;;;;;;;40.13;17.33;;;;;;;6.16;100.00;101119.78;4979504;28;20055;-78
2023/01/30 04:51:28;;;;;;;40.97;18.58;;;;;;;6.10;100.00;101110.22;4971596;28;20481;-77
2023/01/30 04:53:54;;;;;;;47.97;23.27;;;;;;;6.06;100.00;101099.16;4971357;28;20062;-77
2023/01/30 04:56:21;;;;;;;45.17;22.20;;;;;;;6.09;100.00;101100.41;4970888;28;20041;-80
2023/01/30 04:58:47;;;;;;;43.58;21.92;;;;;;;6.08;100.00;101085.06;4971703;28;20043;-77
2023/01/30 05:01:34;;;;;;;20.45;7.75;;;;;;;6.13;100.00;101087.53;4964054;28;20060;-78
2023/01/30 05:04:02;;;;;;;38.95;15.57;;;;;;;6.11;100.00;101106.34;4969329;28;20050;-77
2023/01/30 05:06:30;;;;;;;19.83;9.20;;;;;;;6.21;100.00;101098.31;4958512;28;20738;-81
2023/01/30 05:08:57;;;;;;;15.43;6.82;;;;;;;6.19;100.00;101103.41;4982675;28;20046;-78
2023/01/30 05:11:29;;;;;;;41.00;22.55;;;;;;;6.12;100.00;101121.66;4982649;28;20057;-78
2023/01/30 05:13:55;;;;;;;30.27;13.45;;;;;;;6.20;100.00;101093.19;4981152;28;20062;-78
2023/01/30 05:16:22;;;;;;;35.28;19.10;;;;;;;6.26;100.00;101098.06;4967634;28;20043;-79
2023/01/30 05:18:50;;;;;;;30.90;15.57;;;;;;;6.17;100.00;101089.22;4965709;28;20054;-77
2023/01/30 05:21:19;;;;;;;40.60;22.17;;;;;;;6.24;100.00;101097.59;4971127;28;20121;-78
2023/01/30 05:23:46;;;;;;;33.10;15.38;;;;;;;6.24;100.00;101094.09;4969575;28;20651;-77
2023/01/30 05:26:14;;;;;;;32.88;16.85;;;;;;;6.31;100.00;101089.50;4971915;28;20068;-77
2023/01/30 05:28:44;;;;;;;29.83;13.45;;;;;;;6.30;100.00;101087.94;4965048;28;20454;-80
2023/01/30 05:31:12;;;;;;;37.03;18.65;;;;;;;6.31;100.00;101103.25;4967069;28;20055;-80
2023/01/30 05:33:40;;;;;;;34.75;16.00;;;;;;;6.37;100.00;101081.78;4970338;28;20046;-78
2023/01/30 05:36:13;;;;;;;38.28;19.80;;;;;;;6.34;100.00;101082.53;4973471;28;20057;-78
2023/01/30 05:38:41;;;;;;;37.40;18.25;;;;;;;6.43;100.00;101091.34;4981366;28;20129;-78
2023/01/30 05:41:10;;;;;;;28.33;11.32;;;;;;;6.37;100.00;101082.59;4977846;28;20047;-77
2023/01/30 05:43:36;;;;;;;27.55;12.30;;;;;;;6.40;100.00;101073.63;4974361;28;20084;-77
2023/01/30 05:46:04;;;;;;;45.85;22.60;;;;;;;6.39;100.00;101073.97;4972396;28;20046;-78
2023/01/30 05:48:32;;;;;;;49.13;22.00;;;;;;;6.46;100.00;101074.94;4970865;28;20054;-77
2023/01/30 05:50:59;;;;;;;35.33;14.73;;;;;;;6.39;100.00;101073.97;4973109;28;20046;-77
2023/01/30 05:53:29;;;;;;;32.53;14.90;;;;;;;6.49;100.00;101079.72;4968649;28;20043;-77
2023/01/30 05:56:01;;;;;;;25.25;11.07;;;;;;;6.48;100.00;101091.84;4971469;28;20397;-77
2023/01/30 05:58:28;;;;;;;30.92;14.45;;;;;;;6.49;100.00;101078.91;4959598;28;20049;-77
2023/01/30 06:01:02;;;;;;;20.95;9.60;;;;;;;6.54;100.00;101081.34;4962806;28;20048;-78
2023/01/30 06:03:29;;;;;;;42.20;18.95;;;;;;;6.51;100.00;101088.38;4974530;28;20106;-78
2023/01/30 06:05:56;;;;;;;15.55;8.27;;;;;;;6.56;100.00;101085.38;4971956;28;20042;-78
2023/01/30 06:08:22;;;;;;;39.92;20.85;;;;;;;6.56;100.00;101112.84;4962096;28;21029;-77
2023/01/30 06:10:49;;;;;;;28.35;13.40;;;;;;;6.65;100.00;101112.66;4971593;28;20049;-78
2023/01/30 06:13:16;;;;;;;42.75;22.20;;;;;;;6.65;100.00;101105.16;4971084;28;20078;-78
2023/01/30 06:15:43;;;;;;;27.88;11.77;;;;;;;6.71;100.00;101111.97;4977981;28;20042;-78
2023/01/30 06:18:09;;;;;;;34.80;17.33;;;;;;;6.76;100.00;101108.97;4956279;28;20055;-78
2023/01/30 06:20:36;;;;;;;43.75;20.83;;;;;;;6.84;100.00;101101.63;4972479;28;20043;-78
2023/01/30 06:23:05;;;;;;;23.95;11.77;;;;;;;6.83;100.00;101094.53;4970777;28;20073;-77
2023/01/30 06:25:32;;;;;;;12.55;6.47;;;;;;;6.88;100.00;101097.78;4969519;28;20127;-77
2023/01/30 06:27:58;;;;;;;26.92;12.23;;;;;;;6.86;100.00;101094.63;4955158;28;20050;-77
2023/01/30 06:30:25;;;;;;;41.28;22.13;;;;;;;6.94;100.00;101092.78;4963898;28;20062;-77
2023/01/30 06:32:51;;;;;;;43.17;15.45;;;;;;;6.93;100.00;101082.94;4974529;28;20625;-78
2023/01/30 06:35:18;;;;;;;23.65;8.98;;;;;;;6.99;100.00;101104.28;4958581;28;20047;-76
2023/01/30 06:37:45;;;;;;;36.20;19.30;;;;;;;6.98;100.00;101088.94;4968819;28;20501;-76
2023/01/30 06:40:12;;;;;;;18.92;9.02;;;;;;;7.08;100.00;101115.88;4968214;28;20054;-77
2023/01/30 06:42:46;;;;;;;22.42;8.65;;;;;;;7.09;100.00;101113.94;4969785;28;20071;-76
2023/01/30 06:45:18;;;;;;;48.90;20.65;;;;;;;7.09;100.00;101128.47;4972436;28;20061;-79
2023/01/30 06:47:52;;;;;;;29.67;14.02;;;;;;;7.15;100.00;101134.47;4974026;28;20054;-76
2023/01/30 06:50:22;;;;;;;30.15;13.40;;;;;;;7.17;100.00;101134.91;4969382;28;20048;-77
2023/01/30 06:52:50;;;;;;;24.85;10.18;;;;;;;7.17;100.00;101130.22;4969753;28;20062;-77
2023/01/30 06:55:19;;;;;;;41.28;20.33;;;;;;;7.22;100.00;101123.59;4962238;28;20038;-79
2023/01/30 06:57:47;;;;;;;24.77;12.05;;;;;;;7.21;100.00;101120.06;4951982;28;20101;-77
2023/01/30 07:00:16;;;;;;;30.02;11.32;;;;;;;7.25;100.00;101120.09;4967281;28;20077;-77
2023/01/30 07:02:44;;;;;;;30.85;15.70;;;;;;;7.28;100.00;101108.38;4962641;28;20050;-77
2023/01/30 07:05:11;;;;;;;32.03;16.77;;;;;;;7.29;100.00;101112.75;4971629;28;20050;-79
2023/01/30 07:07:38;;;;;;;29.17;12.25;;;;;;;7.31;100.00;101104.88;4971529;28;20047;-77
2023/01/30 07:10:06;;;;;;;25.55;10.52;;;;;;;7.38;100.00;101107.78;4977468;28;20059;-77
2023/01/30 07:12:35;;;;;;;30.30;13.80;;;;;;;7.43;100.00;101101.97;4969232;28;20055;-78
2023/01/30 07:15:03;;;;;;;23.92;9.95;;;;;;;7.40;100.00;101113.72;4968638;28;20074;-77
2023/01/30 07:17:30;;;;;;;24.80;9.70;;;;;;;7.43;100.00;101130.28;4967323;28;20066;-78
2023/01/30 07:19:56;;;;;;;28.65;12.68;;;;;;;7.44;100.00;101126.38;4970184;28;20085;-78
2023/01/30 07:22:23;;;;;;;43.08;18.73;;;;;;;7.52;100.00;101136.34;4966421;28;20039;-77
2023/01/30 07:24:52;;;;;;;35.55;14.50;;;;;;;7.50;100.00;101135.91;4970130;28;20768;-79
2023/01/30 07:27:18;;;;;;;31.38;12.60;;;;;;;7.48;100.00;101131.94;4974891;28;20122;-78
2023/01/30 07:29:45;;;;;;;34.88;14.05;;;;;;;7.55;100.00;101143.09;4976049;28;20398;-81
2023/01/30 07:32:17;;;;;;;28.00;12.07;;;;;;;7.55;100.00;101149.41;4971910;28;20519;-80
2023/01/30 07:34:45;;;;;;;15.07;5.78;;;;;;;7.55;100.00;101157.66;4978194;28;20057;-79
2023/01/30 07:37:12;;;;;;;22.10;8.70;;;;;;;7.52;100.00;101155.63;4982919;28;20054;-79
2023/01/30 07:39:39;;;;;;;19.98;7.57;;;;;;;7.51;100.00;101165.06;4985870;28;20085;-79
2023/01/30 07:42:05;;;;;;;30.90;14.38;;;;;;;7.59;100.00;101160.47;4972572;28;20138;-80
2023/01/30 07:44:33;;;;;;;14.23;5.68;;;;;;;7.53;100.00;101157.22;4981138;28;20048;-79
2023/01/30 07:46:59;;;;;;;26.92;9.73;;;;;;;7.57;100.00;101155.31;4978025;28;20170;-78
2023/01/30 07:49:26;;;;;;;24.15;7.45;;;;;;;7.62;100.00;101156.97;4972607;28;20070;-79
2023/01/30 07:51:52;;;;;;;10.00;4.35;;;;;;;7.60;100.00;101148.31;4974302;28;20058;-80
2023/01/30 07:54:19;;;;;;;22.17;5.85;;;;;;;7.54;100.00;101166.28;4978261;28;20117;-79
2023/01/30 07:56:46;;;;;;;17.92;5.93;;;;;;;7.60;100.00;101164.81;4969468;28;20552;-79
2023/01/30 07:59:12;;;;;;;24.05;7.72;;;;;;;7.69;100.00;101168.13;4967630;28;20050;-80
2023/01/30 08:01:39;;;;;;;18.50;4.97;;;;;;;7.57;100.00;101160.03;4966465;28;20461;-78
2023/01/30 08:04:05;;;;;;;14.27;3.42;;;;;;;7.68;100.00;101161.84;4972269;28;20055;-76
2023/01/30 08:06:37;;;;;;;16.13;4.78;;;;;;;7.77;100.00;101169.84;4956112;28;20138;-73
2023/01/30 08:09:05;;;;;;;13.88;4.30;;;;;;;7.64;100.00;101162.94;4963845;28;20496;-78
2023/01/30 08:11:32;;;;;;;9.38;3.28;;;;;;;7.68;100.00;101174.78;4965914;28;20042;-78
2023/01/30 08:13:58;;;;;;;14.52;5.05;;;;;;;7.60;100.00;101179.38;4970907;28;20055;-79
2023/01/30 08:16:25;;;;;;;17.58;4.45;;;;;;;7.70;100.00;101169.72;4970075;28;20166;-78
2023/01/30 08:18:51;;;;;;;11.63;2.95;;;;;;;7.65;100.00;101173.56;4972876;28;20476;-80
2023/01/30 08:21:18;;;;;;;11.13;2.85;;;;;;;7.60;100.00;101170.34;4964512;28;20039;-79
2023/01/30 08:23:44;;;;;;;24.25;4.70;;;;;;;7.67;100.00;101178.72;4959691;28;20331;-79
2023/01/30 08:26:11;;;;;;;14.18;3.78;;;;;;;7.64;100.00;101171.19;4964791;28;20067;-78
2023/01/30 08:28:38;;;;;;;12.13;3.17;;;;;;;7.62;100.00;101182.56;4964786;28;20039;-78
2023/01/30 08:31:12;;;;;;;9.55;3.03;;;;;;;7.61;100.00;101163.66;4971603;28;20043;-79
2023/01/30 08:33:38;;;;;;;18.60;3.30;;;;;;;7.72;100.00;101181.16;4974025;28;20051;-78
2023/01/30 08:36:05;;;;;;;20.63;3.00;;;;;;;7.70;100.00;101194.53;4980995;28;20489;-79
2023/01/30 08:38:32;;;;;;;5.65;2.22;;;;;;;7.68;100.00;101183.88;4973502;28;20069;-78
2023/01/30 08:40:59;;;;;;;10.02;1.40;;;;;;;7.65;100.00;101192.03;4961530;28;20053;-79
2023/01/30 08:43:26;;;;;;;11.05;2.70;;;;;;;7.69;100.00;101198.41;4966613;28;20046;-76
2023/01/30 08:45:54;;;;;;;13.82;3.50;;;;;;;7.71;100.00;101191.41;4967609;28;20508;-78
2023/01/30 08:48:20;;;;;;;15.63;2.97;;;;;;;7.70;100.00;101194.53;4980099;28;20106;-79
2023/01/30 08:50:50;;;;;;;18.85;3.85;;;;;;;7.71;100.00;101185.09;4971721;28;20057;-80
2023/01/30 08:53:17;;;;;;;7.45;2.53;;;;;;;7.65;100.00;101197.56;4964089;28;20062;-80
2023/01/30 08:55:44;;;;;;;17.63;2.65;;;;;;;7.72;100.00;101204.00;4977471;28;20126;-77
2023/01/30 08:58:11;;;;;;;13.35;2.55;;;;;;;7.58;100.00;101202.94;4966707;28;20046;-80
2023/01/30 09:00:38;;;;;;;6.57;1.58;;;;;;;7.81;100.00;101203.75;4987686;28;20078;-81
2023/01/30 09:03:05;;;;;;;18.83;3.38;;;;;;;7.83;100.00;101220.69;4969735;28;20717;-77
2023/01/30 09:05:31;;;;;;;12.65;2.75;;;;;;;7.77;100.00;101214.69;4961563;28;20432;-77
2023/01/30 09:07:58;;;;;;;11.00;2.25;;;;;;;7.74;100.00;101211.91;4967492;28;20065;-77
2023/01/30 09:10:24;;;;;;;8.68;2.20;;;;;;;7.84;100.00;101211.28;4976194;28;20047;-78
2023/01/30 09:12:51;;;;;;;19.13;3.47;;;;;;;7.82;100.00;101225.44;4974621;28;20042;-79
2023/01/30 09:15:17;;;;;;;16.58;3.55;;;;;;;7.79;100.00;101217.91;4980023;28;20058;-80
2023/01/30 09:17:44;;;;;;;22.42;4.00;;;;;;;7.82;100.00;101225.44;4977976;28;20057;-80
2023/01/30 09:20:11;;;;;;;14.55;2.70;;;;;;;7.78;100.00;101230.09;4976988;28;20519;-80
2023/01/30 09:22:38;;;;;;;11.52;2.65;;;;;;;7.73;100.00;101229.59;4967700;28;20060;-81
2023/01/30 09:25:05;;;;;;;16.25;2.78;;;;;;;7.77;100.00;101213.94;4979921;28;20173;-79
2023/01/30 09:27:32;;;;;;;21.70;3.53;;;;;;;7.84;100.00;101201.06;4976701;28;20181;-80
2023/01/30 09:29:58;;;;;;;14.40;3.03;;;;;;;7.88;100.00;101207.44;4947695;28;20054;-81
2023/01/30 09:32:25;;;;;;;14.98;2.55;;;;;;;7.89;100.00;101219.25;4970735;28;20050;-78
2023/01/30 09:34:51;;;;;;;13.48;3.10;;;;;;;7.94;100.00;101218.94;4973213;28;20053;-77
2023/01/30 09:37:18;;;;;;;13.70;2.55;;;;;;;7.79;100.00;101241.88;4970093;28;20172;-79
2023/01/30 09:39:44;;;;;;;25.80;4.60;;;;;;;7.91;100.00;101233.47;4983857;28;20056;-80
2023/01/30 09:42:35;;;;;;;18.88;3.40;;;;;;;7.95;100.00;101232.38;4969716;28;20057;-78
2023/01/30 09:45:21;;;;;;;25.33;4.93;;;;;;;7.84;100.00;101244.34;4962181;28;20130;-79
2023/01/30 09:48:05;;;;;;;18.98;4.22;;;;;;;7.93;100.00;101248.44;4961312;28;20062;-77
2023/01/30 09:50:37;;;;;;;14.00;2.83;;;;;;;7.89;100.00;101249.53;4978478;28;20051;-82
2023/01/30 09:53:24;;;;;;;19.13;2.78;;;;;;;7.82;100.00;101255.75;4984699;28;20563;-82
2023/01/30 09:55:51;;;;;;;14.20;2.90;;;;;;;7.89;100.00;101257.81;4973562;28;20082;-82
2023/01/30 09:58:23;;;;;;;20.83;3.00;;;;;;;7.93;100.00;101242.13;4987685;28;20046;-81
2023/01/30 10:01:01;;;;;;;5.70;1.42;;;;;;;7.97;100.00;101256.81;4970103;28;20054;-81
2023/01/30 10:03:34;;;;;;;17.63;3.38;;;;;;;8.07;100.00;101252.63;4983998;28;20049;-81
2023/01/30 10:06:13;;;;;;;15.00;2.80;;;;;;;8.13;100.00;101249.19;4978917;28;20070;-82
2023/01/30 10:09:01;;;;;;;17.08;2.55;;;;;;;8.30;100.00;101248.72;4987630;28;20070;-81
2023/01/30 10:11:54;;;;;;;21.38;3.80;;;;;;;8.31;100.00;101253.09;4976307;28;20119;-81
2023/01/30 10:14:34;;;;;;;16.30;2.97;;;;;;;8.35;100.00;101248.41;4981466;28;20054;-81
2023/01/30 10:17:33;;;;;;;12.00;2.45;;;;;;;8.47;100.00;101244.66;4979335;28;20101;-79
2023/01/30 10:20:22;;;;;;;5.88;1.85;;;;;;;8.44;100.00;101235.16;4969469;28;20051;-79
2023/01/30 10:23:13;;;;;;;11.90;2.67;;;;;;;8.33;100.00;101244.44;4973387;28;20062;-80
2023/01/30 10:25:54;;;;;;;27.25;2.72;;;;;;;8.32;100.00;101249.16;4961525;28;20504;-80
2023/01/30 10:28:33;;;;;;;9.25;1.92;;;;;;;8.29;100.00;101238.06;4957190;28;20780;-80
2023/01/30 10:31:10;;;;;;;23.50;3.67;;;;;;;8.21;100.00;101239.09;4966960;28;20453;-78
2023/01/30 10:33:57;;;;;;;17.23;3.10;;;;;;;8.27;100.00;101230.16;4975279;28;20057;-80
2023/01/30 10:36:42;;;;;;;17.83;2.55;;;;;;;8.16;100.00;101234.66;4968827;28;20405;-81
2023/01/30 10:39:44;;;;;;;9.50;2.97;;;;;;;8.21;100.00;101231.63;4968748;28;20057;-80
2023/01/30 10:42:30;;;;;;;23.02;2.72;;;;;;;8.22;100.00;101238.75;4967999;28;20043;-81
2023/01/30 10:45:09;;;;;;;15.27;2.40;;;;;;;8.03;100.00;101236.81;4970173;28;20066;-79
2023/01/30 10:48:15;;;;;;;19.50;3.45;;;;;;;8.18;100.00;101237.88;4966319;28;20111;-81
2023/01/30 10:51:02;;;;;;;5.90;1.95;;;;;;;8.19;100.00;101241.41;4964101;28;20347;-80
2023/01/30 10:54:07;;;;;;;21.40;2.58;;;;;;;8.19;100.00;101253.22;4964269;28;20134;-80
2023/01/30 10:56:44;;;;;;;12.55;3.00;;;;;;;8.16;100.00;101247.69;4946721;28;20039;-81
2023/01/30 10:59:42;;;;;;;10.57;2.30;;;;;;;8.38;100.00;101253.19;4969559;28;20043;-81
2023/01/30 11:02:34;;;;;;;20.92;3.03;;;;;;;8.58;100.00;101243.66;4982284;28;20498;-76
2023/01/30 11:05:11;;;;;;;18.20;2.85;;;;;;;8.51;100.00;101245.50;4973629;28;20054;-78
2023/01/30 11:07:41;;;;;;;15.90;2.47;;;;;;;8.56;100.00;101268.06;4988269;28;20035;-78
2023/01/30 11:10:15;;;;;;;28.63;3.50;;;;;;;8.57;100.00;101255.84;4966061;28;20054;-79
2023/01/30 11:12:42;;;;;;;24.23;5.18;;;;;;;8.55;100.00;101257.41;4981438;28;20042;-78
2023/01/30 11:15:10;;;;;;;11.68;2.40;;;;;;;8.38;100.00;101269.75;4975522;28;20504;-79
2023/01/30 11:17:44;;;;;;;6.30;1.23;;;;;;;8.59;100.00;101255.47;4968178;28;20043;-79
2023/01/30 11:20:11;;;;;;;23.42;4.00;;;;;;;8.58;100.00;101262.97;4980504;28;20588;-79
2023/01/30 11:22:59;;;;;;;5.20;1.33;;;;;;;8.61;100.00;101258.69;4988298;28;20055;-79
2023/01/30 11:25:25;;;;;;;14.80;2.47;;;;;;;8.65;100.00;101262.28;4987513;28;20053;-80
2023/01/30 11:27:55;;;;;;;8.60;2.05;;;;;;;8.57;100.00;101258.59;4988706;28;20053;-79
2023/01/30 11:30:27;;;;;;;14.90;2.50;;;;;;;8.58;100.00;101257.47;4987671;28;20050;-78
2023/01/30 11:33:13;;;;;;;15.75;3.10;;;;;;;8.53;100.00;101268.00;4973994;28;20051;-78
2023/01/30 11:35:52;;;;;;;16.45;2.80;;;;;;;8.61;100.00;101276.00;4973212;28;20053;-80
2023/01/30 11:38:22;;;;;;;18.45;3.67;;;;;;;8.59;100.00;101283.88;4981232;28;20059;-78